<?xml version="1.0" encoding="UTF-8" standalone="no" ?>
<gpx xmlns="http://www.topografix.com/GPX/1/1" xmlns:xsi="http://www.w3.org/2001/XMLSchema-instance" xsi:schemaLocation="http://www.topografix.com/GPX/1/1 http://www.topografix.com/GPX/1/1/gpx.xsd" version="1.1" creator="VisuGPX - https://www.visugpx.com">
  <metadata>
    <name>Argentina</name>
    <desc><![CDATA[Downloaded from eMap Software Version 2.75]]></desc>
  </metadata>
  <trk>
    <name><![CDATA[Argentina_44]]></name>
    <extensions>
      <line xmlns="http://www.topografix.com/GPX/gpx_style/0/2">
        <color>ff0000</color>
        <opacity>0.78</opacity>
        <width>0.6000</width>
      </line>
    </extensions>
    <trkseg>
      <trkpt lat="-27.48112" lon="-61.6563">
        <ele>167.887329</ele>
        <time>2005-12-12T21:33:34Z</time>
      </trkpt>
      <trkpt lat="-27.48069" lon="-61.65506">
        <ele>167.887329</ele>
        <time>2005-12-12T21:33:39Z</time>
      </trkpt>
      <trkpt lat="-27.47818" lon="-61.64802">
        <ele>167.887329</ele>
        <time>2005-12-12T21:34:07Z</time>
      </trkpt>
      <trkpt lat="-27.47443" lon="-61.63684">
        <ele>167.887329</ele>
        <time>2005-12-12T21:34:51Z</time>
      </trkpt>
      <trkpt lat="-27.46958" lon="-61.62251">
        <ele>167.887329</ele>
        <time>2005-12-12T21:35:48Z</time>
      </trkpt>
      <trkpt lat="-27.46578" lon="-61.61081">
        <ele>95.788452</ele>
        <time>2005-12-12T21:36:34Z</time>
      </trkpt>
      <trkpt lat="-27.46305" lon="-61.60225">
        <ele>97.230469</ele>
        <time>2005-12-12T21:37:08Z</time>
      </trkpt>
      <trkpt lat="-27.46121" lon="-61.59629">
        <ele>97.230469</ele>
        <time>2005-12-12T21:37:31Z</time>
      </trkpt>
      <trkpt lat="-27.45923" lon="-61.59021">
        <ele>97.230469</ele>
        <time>2005-12-12T21:37:55Z</time>
      </trkpt>
      <trkpt lat="-27.45689" lon="-61.58324">
        <ele>97.230469</ele>
        <time>2005-12-12T21:38:23Z</time>
      </trkpt>
      <trkpt lat="-27.45361" lon="-61.57343">
        <ele>96.269287</ele>
        <time>2005-12-12T21:39:02Z</time>
      </trkpt>
      <trkpt lat="-27.44949" lon="-61.56127">
        <ele>96.269287</ele>
        <time>2005-12-12T21:39:50Z</time>
      </trkpt>
      <trkpt lat="-27.44762" lon="-61.55571">
        <ele>96.269287</ele>
        <time>2005-12-12T21:40:12Z</time>
      </trkpt>
      <trkpt lat="-27.44479" lon="-61.54741">
        <ele>96.269287</ele>
        <time>2005-12-12T21:40:45Z</time>
      </trkpt>
      <trkpt lat="-27.44129" lon="-61.53715">
        <ele>96.269287</ele>
        <time>2005-12-12T21:41:26Z</time>
      </trkpt>
      <trkpt lat="-27.43773" lon="-61.52661">
        <ele>96.749878</ele>
        <time>2005-12-12T21:42:08Z</time>
      </trkpt>
    </trkseg>
  </trk>
</gpx>